Time;durP1;ratioP1;P1;durP2;ratioP2;P2;SDS_P1;SDS_P2;PMS_P1;PMS_P2;Temp;Humidity;BMP_temperature;BMP_pressure;BME280_temperature;BME280_humidity;BME280_pressure;Samples;Min_cycle;Max_cycle;Signal;HPM_P1;HPM_P2
2022/11/28 00:03:10;;;;;;;17.92;6.65;;;;;;;5.92;100.00;100811.81;10466320;28;20373;-87
2022/11/28 00:08:10;;;;;;;9.82;7.45;;;;;;;5.95;100.00;100814.59;10473793;28;20037;-86
2022/11/28 00:13:11;;;;;;;12.15;7.93;;;;;;;5.98;100.00;100809.63;10440546;28;20059;-86
2022/11/28 00:18:11;;;;;;;9.20;6.53;;;;;;;5.94;100.00;100809.28;10451752;28;20614;-85
2022/11/28 00:23:12;;;;;;;7.88;5.88;;;;;;;5.93;100.00;100802.31;10481530;28;20060;-86
2022/11/28 00:28:12;;;;;;;12.27;6.38;;;;;;;5.96;100.00;100799.91;10463933;28;20083;-85
2022/11/28 00:33:13;;;;;;;11.25;6.60;;;;;;;5.93;100.00;100794.50;10483055;28;20033;-85
2022/11/28 00:38:13;;;;;;;9.43;6.60;;;;;;;5.86;100.00;100785.44;10467729;28;20041;-84
2022/11/28 00:43:14;;;;;;;19.52;9.20;;;;;;;5.81;100.00;100789.44;10464981;28;20051;-86
2022/11/28 00:48:15;;;;;;;13.95;7.90;;;;;;;5.81;100.00;100787.72;10472187;28;20037;-87
2022/11/28 00:53:15;;;;;;;10.65;7.45;;;;;;;5.87;100.00;100792.41;10482092;28;20052;-86
2022/11/28 00:58:16;;;;;;;11.82;7.78;;;;;;;5.92;100.00;100793.63;10458022;28;20152;-86
2022/11/28 01:03:16;;;;;;;10.93;7.07;;;;;;;5.98;100.00;100780.13;10441013;28;20615;-86
2022/11/28 01:08:17;;;;;;;12.68;7.82;;;;;;;5.97;100.00;100792.22;10450661;28;20055;-87
2022/11/28 01:13:18;;;;;;;11.52;6.93;;;;;;;5.99;100.00;100784.50;10480594;28;20496;-86
2022/11/28 01:18:18;;;;;;;10.27;6.90;;;;;;;5.96;100.00;100794.69;10451387;28;20179;-87
2022/11/28 01:23:19;;;;;;;14.93;9.00;;;;;;;5.90;100.00;100799.50;10458318;28;20170;-85
2022/11/28 01:28:19;;;;;;;13.68;7.43;;;;;;;5.83;100.00;100801.69;10465439;28;20041;-86
2022/11/28 01:33:20;;;;;;;13.63;8.45;;;;;;;5.78;100.00;100812.59;10438330;28;20139;-86
2022/11/28 01:38:21;;;;;;;15.50;10.65;;;;;;;5.71;100.00;100809.59;10441794;28;20148;-85
2022/11/28 01:43:22;;;;;;;23.58;11.20;;;;;;;5.72;100.00;100818.28;10459704;28;20045;-87
2022/11/28 01:48:28;;;;;;;22.10;11.60;;;;;;;5.65;100.00;100821.25;10390202;28;20037;-89
2022/11/28 01:53:29;;;;;;;20.77;11.45;;;;;;;5.59;100.00;100809.66;10388271;28;20124;-88
2022/11/28 01:58:30;;;;;;;19.38;10.63;;;;;;;5.55;100.00;100807.66;10420772;28;20033;-88
2022/11/28 02:03:34;;;;;;;26.23;12.52;;;;;;;5.56;100.00;100806.84;10427439;28;20049;-88
2022/11/28 02:08:35;;;;;;;15.85;10.88;;;;;;;5.55;100.00;100799.88;10427898;28;20049;-87
2022/11/28 02:14:02;;;;;;;19.75;12.75;;;;;;;5.53;100.00;100787.59;10427477;28;20040;-89
2022/11/28 02:19:40;;;;;;;15.73;12.27;;;;;;;5.53;100.00;100777.22;10428198;28;20059;-90
2022/11/28 02:25:01;;;;;;;19.73;12.82;;;;;;;5.48;100.00;100769.09;10445479;28;20048;-90
2022/11/28 02:30:20;;;;;;;18.48;13.73;;;;;;;5.58;100.00;100773.22;10445321;28;20366;-89
2022/11/28 02:35:48;;;;;;;23.42;12.88;;;;;;;5.59;100.00;100770.72;10402652;28;20046;-89
2022/11/28 02:41:01;;;;;;;16.67;11.63;;;;;;;5.61;100.00;100775.13;10412474;28;20609;-90
2022/11/28 02:46:26;;;;;;;20.35;12.48;;;;;;;5.58;100.00;100776.72;10439617;28;20465;-90
2022/11/28 02:51:42;;;;;;;18.27;11.90;;;;;;;5.57;100.00;100776.63;10443565;28;20041;-88
2022/11/28 02:56:50;;;;;;;25.15;13.27;;;;;;;5.55;100.00;100767.84;10481552;28;20036;-89
2022/11/28 03:01:50;;;;;;;24.35;11.98;;;;;;;5.59;100.00;100773.31;10420702;28;20117;-89
2022/11/28 03:07:04;;;;;;;17.83;11.95;;;;;;;5.64;100.00;100765.84;10436418;28;20036;-90
2022/11/28 03:12:27;;;;;;;18.98;11.40;;;;;;;5.66;100.00;100765.94;10442056;28;20082;-91
2022/11/28 03:17:46;;;;;;;16.45;12.30;;;;;;;5.66;100.00;100765.94;10441708;28;20041;-88
2022/11/28 03:23:20;;;;;;;17.92;10.65;;;;;;;5.64;100.00;100763.25;10423323;28;20044;-90
2022/11/28 03:28:41;;;;;;;16.98;10.10;;;;;;;5.64;100.00;100765.84;10420037;28;20041;-91
2022/11/28 03:33:44;;;;;;;21.00;13.00;;;;;;;5.62;100.00;100769.13;10427795;28;20469;-91
2022/11/28 03:38:48;;;;;;;16.50;9.90;;;;;;;5.66;100.00;100768.53;10445591;28;20044;-91
2022/11/28 03:43:51;;;;;;;21.15;11.35;;;;;;;5.65;100.00;100770.25;10443735;28;20392;-90
2022/11/28 03:48:53;;;;;;;26.15;13.45;;;;;;;5.64;100.00;100763.25;10425710;28;20037;-90
2022/11/28 03:54:02;;;;;;;17.20;12.57;;;;;;;5.62;100.00;100759.66;10453014;28;20377;-91
2022/11/28 03:59:07;;;;;;;22.23;14.25;;;;;;;5.63;100.00;100758.84;10423090;28;20044;-91
2022/11/28 04:04:37;;;;;;;21.50;13.13;;;;;;;5.63;100.00;100761.44;10405065;28;20045;-86
2022/11/28 04:09:50;;;;;;;17.67;13.02;;;;;;;5.64;100.00;100751.94;10470811;28;20064;-91
2022/11/28 04:14:53;;;;;;;21.70;13.15;;;;;;;5.65;100.00;100762.44;10425236;28;20103;-90
2022/11/28 04:20:02;;;;;;;18.58;12.40;;;;;;;5.67;100.00;100766.03;10434983;28;20047;-89
2022/11/28 04:25:06;;;;;;;20.65;13.75;;;;;;;5.62;100.00;100769.13;10440564;28;20033;-90
2022/11/28 04:30:07;;;;;;;18.25;12.20;;;;;;;5.64;100.00;100777.91;10401816;28;20120;-90
2022/11/28 04:35:13;;;;;;;19.17;13.70;;;;;;;5.64;100.00;100768.44;10423353;28;20404;-90
2022/11/28 04:40:13;;;;;;;19.23;13.45;;;;;;;5.66;100.00;100768.53;10480122;28;20036;-92
2022/11/28 04:45:17;;;;;;;18.92;12.63;;;;;;;5.64;100.00;100778.81;10482205;28;20032;-92
2022/11/28 04:50:17;;;;;;;18.63;13.10;;;;;;;5.65;100.00;100780.63;10476000;28;20064;-90
2022/11/28 04:55:46;;;;;;;19.85;10.68;;;;;;;5.68;100.00;100779.91;10446386;28;20123;-90
2022/11/28 05:00:47;;;;;;;18.05;11.07;;;;;;;5.73;100.00;100776.84;10474837;28;20037;-90
2022/11/28 05:05:49;;;;;;;14.32;9.32;;;;;;;5.72;100.00;100772.44;10464799;28;20480;-89
2022/11/28 05:10:49;;;;;;;12.45;8.18;;;;;;;5.74;100.00;100772.53;10442399;28;20037;-89
2022/11/28 05:15:50;;;;;;;11.57;7.78;;;;;;;5.72;100.00;100777.63;10446974;28;20064;-89
2022/11/28 05:20:51;;;;;;;14.77;8.35;;;;;;;5.80;100.00;100780.72;10447355;28;20047;-90
2022/11/28 05:25:51;;;;;;;12.02;7.22;;;;;;;5.76;100.00;100780.44;10445301;28;20511;-86
2022/11/28 05:30:58;;;;;;;12.10;6.50;;;;;;;5.73;100.00;100778.53;10477863;28;20048;-88
2022/11/28 05:36:05;;;;;;;11.02;7.32;;;;;;;5.73;100.00;100783.72;10488339;28;20532;-90
2022/11/28 05:41:06;;;;;;;10.80;7.72;;;;;;;5.73;100.00;100775.91;10479653;28;20036;-91
2022/11/28 05:46:06;;;;;;;12.18;7.10;;;;;;;5.67;100.00;100766.03;10485719;28;20511;-91
2022/11/28 05:51:07;;;;;;;13.38;8.52;;;;;;;5.65;100.00;100770.25;10454489;28;20056;-91
2022/11/28 05:56:09;;;;;;;15.20;7.13;;;;;;;5.65;100.00;100769.31;10484289;28;20047;-89
2022/11/28 06:01:11;;;;;;;13.73;6.63;;;;;;;5.65;100.00;100769.31;10451718;28;20064;-88
2022/11/28 06:06:16;;;;;;;;;;;;;;;5.68;100.00;100770.44;10465299;28;20041;-90
2022/11/28 06:11:16;;;;;;;15.95;7.47;;;;;;;5.59;100.00;100772.44;10469562;28;19928;-94
2022/11/28 06:16:19;;;;;;;15.05;7.82;;;;;;;5.60;100.00;100774.22;10455467;28;20109;-95
2022/11/28 06:21:20;;;;;;;12.93;7.80;;;;;;;5.56;100.00;100775.69;10482446;28;20045;-92
2022/11/28 06:26:21;;;;;;;15.18;8.48;;;;;;;5.54;100.00;100787.69;10484901;28;20123;-91
2022/11/28 06:31:23;;;;;;;14.95;8.80;;;;;;;5.57;100.00;100784.41;10445067;28;20140;-93
2022/11/28 06:36:25;;;;;;;15.57;8.70;;;;;;;5.57;100.00;100787.88;10446859;28;20064;-92
2022/11/28 06:41:25;;;;;;;15.13;9.93;;;;;;;5.56;100.00;100798.19;10436270;28;20037;-93
2022/11/28 06:46:26;;;;;;;13.13;7.97;;;;;;;5.52;100.00;100794.47;10438671;28;20071;-92
2022/11/28 06:51:29;;;;;;;15.77;8.98;;;;;;;5.54;100.00;100792.88;10460422;28;20545;-94
2022/11/28 06:56:33;;;;;;;13.68;8.55;;;;;;;5.56;100.00;100790.41;10441928;28;20033;-95
2022/11/28 07:01:33;;;;;;;13.65;9.38;;;;;;;5.56;100.00;100793.88;10431408;28;20068;-92
2022/11/28 07:06:34;;;;;;;15.90;9.55;;;;;;;5.54;100.00;100794.59;10444287;28;20071;-91
2022/11/28 07:11:34;;;;;;;22.20;10.25;;;;;;;5.48;100.00;100792.47;10440403;28;20041;-89
2022/11/28 07:16:39;;;;;;;15.18;9.60;;;;;;;5.56;100.00;100790.41;10442617;28;20098;-91
2022/11/28 07:21:40;;;;;;;19.73;9.60;;;;;;;5.53;100.00;100796.28;10479979;28;21062;-91
2022/11/28 07:26:40;;;;;;;14.65;8.70;;;;;;;5.55;100.00;100798.97;10454058;28;20043;-89
2022/11/28 07:31:41;;;;;;;14.07;9.63;;;;;;;5.52;100.00;100801.38;10450308;28;20039;-87
2022/11/28 07:36:41;;;;;;;14.82;9.63;;;;;;;5.52;100.00;100806.56;10481958;28;20036;-86
2022/11/28 07:41:42;;;;;;;19.38;9.30;;;;;;;5.50;100.00;100806.44;10428452;28;20040;-86
2022/11/28 07:46:43;;;;;;;15.27;8.80;;;;;;;5.53;100.00;100816.16;10479569;28;20420;-88
2022/11/28 07:51:44;;;;;;;14.27;9.38;;;;;;;5.58;100.00;100815.66;10455333;28;20041;-87
2022/11/28 07:56:45;;;;;;;17.10;10.35;;;;;;;5.62;100.00;100811.59;10440588;28;20112;-86
2022/11/28 08:01:47;;;;;;;13.68;9.43;;;;;;;5.63;100.00;100818.56;10448161;28;20166;-85
2022/11/28 08:06:47;;;;;;;16.35;9.13;;;;;;;5.70;100.00;100825.97;10479469;28;20094;-95
2022/11/28 08:11:51;;;;;;;18.25;10.93;;;;;;;5.73;100.00;100826.19;10433954;28;20147;-89
2022/11/28 08:16:52;;;;;;;17.60;9.85;;;;;;;5.75;100.00;100825.38;10458753;28;20123;-91
2022/11/28 08:21:52;;;;;;;16.98;11.95;;;;;;;5.76;100.00;100835.84;10445295;28;20400;-90
2022/11/28 08:26:53;;;;;;;18.90;12.70;;;;;;;5.84;100.00;100831.19;10460711;28;20038;-92
2022/11/28 08:31:53;;;;;;;13.70;10.23;;;;;;;5.85;100.00;100835.59;10470554;28;20067;-90
2022/11/28 08:36:54;;;;;;;19.15;11.82;;;;;;;5.86;100.00;100820.09;10450576;28;20074;-89
2022/11/28 08:41:58;;;;;;;18.58;9.90;;;;;;;5.88;100.00;100833.19;10438764;28;20144;-90
2022/11/28 08:46:59;;;;;;;23.38;12.63;;;;;;;5.97;100.00;100831.19;10403804;28;20076;-91
2022/11/28 08:51:59;;;;;;;18.75;11.95;;;;;;;5.98;100.00;100837.28;10407042;28;20060;-91
2022/11/28 08:57:00;;;;;;;22.15;13.48;;;;;;;6.01;100.00;100829.72;10414661;28;20076;-88
2022/11/28 09:02:01;;;;;;;20.55;13.57;;;;;;;6.06;100.00;100838.72;10447742;28;20047;-88
2022/11/28 09:07:23;;;;;;;15.05;10.05;;;;;;;6.04;100.00;100840.31;10438494;28;20507;-87
2022/11/28 09:12:24;;;;;;;14.88;10.18;;;;;;;6.05;100.00;100843.81;10452015;28;20037;-88
2022/11/28 09:17:24;;;;;;;14.65;8.75;;;;;;;6.10;100.00;100848.50;10456277;28;20647;-89
2022/11/28 09:22:30;;;;;;;12.95;9.52;;;;;;;6.13;100.00;100853.91;10462826;28;20044;-89
2022/11/28 09:27:30;;;;;;;13.80;8.60;;;;;;;6.18;100.00;100854.22;10486379;28;20412;-88
2022/11/28 09:32:31;;;;;;;10.82;8.05;;;;;;;6.20;100.00;100854.31;10453015;28;20128;-89
2022/11/28 09:37:32;;;;;;;10.27;7.90;;;;;;;6.26;100.00;100859.91;10447335;28;20115;-89
2022/11/28 09:42:38;;;;;;;14.98;8.85;;;;;;;6.22;100.00;100860.50;10447940;28;20067;-89
2022/11/28 09:47:39;;;;;;;15.57;9.38;;;;;;;6.28;100.00;100866.09;10430769;28;20534;-91
2022/11/28 09:53:14;;;;;;;11.15;8.23;;;;;;;6.35;100.00;100859.63;10438309;28;20069;-91
2022/11/28 09:58:40;;;;;;;14.55;9.10;;;;;;;6.38;100.00;100860.69;10436450;28;20033;-89
2022/11/28 10:03:54;;;;;;;15.38;9.88;;;;;;;6.44;100.00;100858.50;10462472;28;20064;-88
2022/11/28 10:09:04;;;;;;;17.60;11.13;;;;;;;6.50;100.00;100859.69;10433620;28;20037;-90
2022/11/28 10:14:29;;;;;;;13.88;10.00;;;;;;;6.56;100.00;100865.28;10409912;28;20050;-94
2022/11/28 10:19:39;;;;;;;12.18;8.90;;;;;;;6.57;100.00;100860.19;10443366;28;20115;-91
2022/11/28 10:24:42;;;;;;;15.45;10.07;;;;;;;6.56;100.00;100855.78;10424389;28;20085;-90
2022/11/28 10:30:00;;;;;;;15.27;9.18;;;;;;;6.72;100.00;100861.97;10387941;28;20041;-89
2022/11/28 10:35:13;;;;;;;14.43;10.60;;;;;;;6.75;100.00;100857.84;10425654;28;20067;-89
2022/11/28 10:40:31;;;;;;;16.13;12.98;;;;;;;6.77;100.00;100857.94;10445346;28;20385;-90
2022/11/28 10:45:50;;;;;;;15.85;11.07;;;;;;;6.87;100.00;100860.31;10424286;28;20045;-90
2022/11/28 10:51:26;;;;;;;19.25;11.55;;;;;;;6.94;100.00;100864.19;10467006;28;20068;-89
2022/11/28 10:56:55;;;;;;;17.13;11.82;;;;;;;6.92;100.00;100867.50;10411210;28;20059;-90
2022/11/28 11:01:56;;;;;;;16.48;11.05;;;;;;;6.87;100.00;100868.13;10432364;28;20061;-88
2022/11/28 11:07:02;;;;;;;13.15;9.57;;;;;;;6.99;100.00;100861.88;10426504;28;20041;-94
2022/11/28 11:12:03;;;;;;;14.82;11.10;;;;;;;6.97;100.00;100866.09;10446504;28;20041;-94
2022/11/28 11:17:03;;;;;;;14.40;10.88;;;;;;;6.96;100.00;100859.09;10432015;28;20052;-94
2022/11/28 11:22:11;;;;;;;17.90;13.65;;;;;;;6.96;100.00;100859.97;10469530;28;20472;-92
2022/11/28 11:27:20;;;;;;;16.67;11.10;;;;;;;6.99;100.00;100859.28;10464933;28;20106;-94
2022/11/28 11:32:26;;;;;;;14.02;10.07;;;;;;;6.97;100.00;100858.28;10437737;28;20078;-94
2022/11/28 11:37:34;;;;;;;18.73;12.23;;;;;;;7.00;100.00;100858.47;10427683;28;20037;-92
2022/11/28 11:42:35;;;;;;;15.38;12.35;;;;;;;7.04;100.00;100860.47;10421296;28;20037;-95
2022/11/28 11:47:41;;;;;;;35.35;14.18;;;;;;;7.07;100.00;100867.56;10433536;28;20032;-95
2022/11/28 11:52:41;;;;;;;21.58;12.02;;;;;;;7.09;100.00;100859.06;10429040;28;20476;-94
2022/11/28 11:57:51;;;;;;;25.27;13.48;;;;;;;7.11;100.00;100865.25;10443360;28;20071;-94
2022/11/28 12:02:58;;;;;;;25.40;14.52;;;;;;;7.13;100.00;100860.13;10444380;28;20048;-96
2022/11/28 12:08:05;;;;;;;22.85;15.15;;;;;;;7.20;100.00;100863.22;10464587;28;20041;-95
2022/11/28 12:13:10;;;;;;;33.60;17.00;;;;;;;7.22;100.00;100860.69;10428412;28;20465;-95
2022/11/28 12:18:38;;;;;;;29.05;14.35;;;;;;;7.30;100.00;100867.25;10434945;28;20036;-95
2022/11/28 12:24:04;;;;;;;30.25;14.45;;;;;;;7.32;100.00;100876.06;10483584;28;20481;-95
2022/11/28 12:29:21;;;;;;;27.80;17.20;;;;;;;7.27;100.00;100868.78;10488622;28;20040;-95
2022/11/28 12:34:52;;;;;;;26.70;17.52;;;;;;;7.25;100.00;100868.69;10471187;28;20431;-95
2022/11/28 12:40:02;;;;;;;31.25;16.77;;;;;;;7.32;100.00;100872.56;10446409;28;20039;-94
2022/11/28 12:46:01;;;;;;;29.27;16.63;;;;;;;7.32;100.00;100873.47;10463507;28;20036;-94
2022/11/28 12:51:04;;;;;;;39.92;16.48;;;;;;;7.37;100.00;100871.16;10453940;28;20131;-95
2022/11/28 12:56:42;;;;;;;33.60;16.85;;;;;;;7.42;100.00;100874.94;10480248;28;20043;-94
2022/11/28 13:02:07;;;;;;;37.42;16.77;;;;;;;7.46;100.00;100868.19;10432814;28;20107;-83
2022/11/28 13:07:45;;;;;;;36.92;17.58;;;;;;;7.59;100.00;100873.31;10446180;28;20047;-94
2022/11/28 13:13:21;;;;;;;27.50;15.25;;;;;;;7.66;100.00;100866.78;10447506;28;20048;-95
2022/11/28 13:18:28;;;;;;;24.65;15.43;;;;;;;7.87;100.00;100866.25;10455786;28;20044;-95
2022/11/28 13:23:38;;;;;;;31.02;16.10;;;;;;;7.90;100.00;100864.72;10505239;28;20051;-94
2022/11/28 13:28:51;;;;;;;23.35;13.55;;;;;;;7.95;100.00;100870.22;10487407;28;20123;-93
2022/11/28 13:33:53;;;;;;;29.15;11.55;;;;;;;7.89;100.00;100859.44;10492951;28;20032;-94
2022/11/28 13:38:58;;;;;;;20.42;11.13;;;;;;;7.86;100.00;100867.94;10495235;28;20381;-94
2022/11/28 13:44:36;;;;;;;34.03;14.50;;;;;;;7.90;100.00;100867.31;10482313;28;20048;-93
2022/11/28 13:49:37;;;;;;;22.90;13.48;;;;;;;7.84;100.00;100874.78;10447251;28;20051;-93
2022/11/28 13:54:40;;;;;;;24.27;14.55;;;;;;;7.85;100.00;100873.97;10456977;28;20033;-93
2022/11/28 13:59:46;;;;;;;35.38;14.05;;;;;;;7.81;100.00;100872.00;10431110;28;20043;-90
2022/11/28 14:04:47;;;;;;;24.17;13.07;;;;;;;7.80;100.00;100872.81;10429070;28;20442;-89
2022/11/28 14:10:14;;;;;;;23.40;13.85;;;;;;;7.88;100.00;100881.97;10467341;28;20043;-87
2022/11/28 14:15:17;;;;;;;19.60;13.60;;;;;;;7.79;100.00;100884.94;10462900;28;20040;-88
2022/11/28 14:20:56;;;;;;;26.25;13.57;;;;;;;7.82;100.00;100888.53;10487339;28;20029;-89
2022/11/28 14:25:57;;;;;;;18.35;10.75;;;;;;;7.71;100.00;100891.41;10484528;28;20626;-88
2022/11/28 14:31:18;;;;;;;27.58;13.43;;;;;;;7.67;100.00;100902.44;10419950;28;20087;-89
2022/11/28 14:36:28;;;;;;;16.38;12.30;;;;;;;7.58;100.00;100910.59;10445506;28;20507;-93
2022/11/28 14:41:29;;;;;;;29.67;13.90;;;;;;;7.59;100.00;100912.41;10427163;28;20384;-91
2022/11/28 14:46:32;;;;;;;23.08;11.48;;;;;;;7.55;100.00;100913.00;10444380;28;20063;-90
2022/11/28 14:51:48;;;;;;;19.23;12.48;;;;;;;7.49;100.00;100920.47;10443013;28;20037;-90
2022/11/28 14:56:49;;;;;;;17.52;10.43;;;;;;;7.35;100.00;100923.13;10468701;28;20041;-90
2022/11/28 15:02:06;;;;;;;30.52;14.55;;;;;;;7.18;100.00;100916.88;10468632;28;20174;-90
2022/11/28 15:07:19;;;;;;;22.02;12.68;;;;;;;7.19;100.00;100923.88;10483514;28;20060;-91
2022/11/28 15:12:50;;;;;;;18.75;12.57;;;;;;;6.95;100.00;100925.84;10485577;28;20064;-91
2022/11/28 15:17:52;;;;;;;20.55;11.63;;;;;;;6.78;100.00;100913.47;10484780;28;20037;-92
2022/11/28 15:22:52;;;;;;;17.00;11.30;;;;;;;6.63;100.00;100924.69;10466250;28;20118;-91
2022/11/28 15:27:54;;;;;;;20.40;11.45;;;;;;;6.48;100.00;100927.19;10483232;28;20432;-91
2022/11/28 15:32:57;;;;;;;20.33;14.37;;;;;;;6.38;100.00;100938.69;10484570;28;20032;-94
2022/11/28 15:38:00;;;;;;;28.17;15.13;;;;;;;6.29;100.00;100940.69;10485732;28;20032;-93
2022/11/28 15:43:01;;;;;;;26.23;13.75;;;;;;;6.28;100.00;100944.06;10468465;28;20556;-94
2022/11/28 15:48:03;;;;;;;22.77;15.07;;;;;;;6.34;100.00;100949.69;10466857;28;20116;-94
2022/11/28 15:53:15;;;;;;;19.60;12.37;;;;;;;6.33;100.00;100950.47;10480827;28;20037;-93
2022/11/28 15:58:24;;;;;;;21.30;13.00;;;;;;;6.34;100.00;100948.78;10440366;28;20814;-91
2022/11/28 16:03:26;;;;;;;21.40;14.30;;;;;;;6.21;100.00;100947.97;10429903;28;20041;-89
2022/11/28 16:08:34;;;;;;;25.35;14.70;;;;;;;6.14;100.00;100953.56;10418120;28;20377;-88
2022/11/28 16:13:36;;;;;;;21.27;13.35;;;;;;;6.06;100.00;100958.22;10452343;28;20071;-88
2022/11/28 16:18:37;;;;;;;19.15;10.90;;;;;;;6.01;100.00;100959.63;10482533;28;20048;-88
2022/11/28 16:23:38;;;;;;;24.55;17.05;;;;;;;5.98;100.00;100977.56;10444922;28;20580;-89
2022/11/28 16:28:39;;;;;;;23.45;15.50;;;;;;;6.04;100.00;100978.03;10450824;28;20036;-87
2022/11/28 16:33:42;;;;;;;22.70;13.20;;;;;;;6.09;100.00;100981.84;10439396;28;20033;-89
2022/11/28 16:39:10;;;;;;;42.33;15.75;;;;;;;6.07;100.00;100990.34;10448826;28;20532;-85
2022/11/28 16:44:14;;;;;;;29.60;16.48;;;;;;;6.09;100.00;101001.72;10439306;28;20041;-87
2022/11/28 16:49:38;;;;;;;35.83;18.58;;;;;;;6.16;100.00;101004.84;10430157;28;20390;-88
2022/11/28 16:54:38;;;;;;;34.58;20.23;;;;;;;6.36;100.00;101010.47;10463907;28;20032;-87
2022/11/28 16:59:40;;;;;;;28.67;17.48;;;;;;;6.31;100.00;101011.88;10455062;28;20069;-89
2022/11/28 17:04:40;;;;;;;29.93;18.20;;;;;;;6.28;100.00;101016.84;10400424;28;20424;-87
2022/11/28 17:09:42;;;;;;;25.95;17.00;;;;;;;6.28;100.00;101019.47;10440340;28;20041;-88
2022/11/28 17:14:43;;;;;;;31.52;19.17;;;;;;;6.30;100.00;101025.66;10429162;28;20124;-87
2022/11/28 17:19:43;;;;;;;39.00;21.38;;;;;;;6.28;100.00;101037.66;10444005;28;20095;-87
2022/11/28 17:24:44;;;;;;;31.23;16.73;;;;;;;6.25;100.00;101038.38;10425841;28;20542;-83
2022/11/28 17:29:44;;;;;;;30.75;17.15;;;;;;;6.26;100.00;101029.75;10422305;28;21102;-88
2022/11/28 17:34:45;;;;;;;26.33;14.88;;;;;;;6.20;100.00;101037.16;10404308;28;20044;-88
2022/11/28 17:45:11;;;;;;;35.35;18.20;;;;;;;6.23;100.00;101054.63;10447619;28;20045;-87
2022/11/28 17:50:12;;;;;;;33.63;22.75;;;;;;;6.34;100.00;101057.97;10466645;28;20036;-88
2022/11/28 17:55:13;;;;;;;40.60;24.25;;;;;;;6.26;100.00;101053.16;10479882;28;20035;-88
2022/11/28 18:00:14;;;;;;;36.17;20.67;;;;;;;6.22;100.00;101051.16;10442766;28;20043;-87
2022/11/28 18:05:14;;;;;;;33.10;20.50;;;;;;;6.21;100.00;101053.63;10441008;28;20103;-88
2022/11/28 18:10:15;;;;;;;40.63;22.77;;;;;;;6.18;100.00;101049.13;10458927;28;20045;-88
2022/11/28 18:15:15;;;;;;;73.07;24.83;;;;;;;6.14;100.00;101053.22;10484851;28;20066;-87
2022/11/28 18:20:16;;;;;;;36.72;22.83;;;;;;;6.15;100.00;101056.72;10458661;28;20105;-95
2022/11/28 18:25:18;;;;;;;33.53;21.20;;;;;;;6.13;100.00;101059.19;10440268;28;20127;-91
2022/11/28 18:30:18;;;;;;;43.42;21.85;;;;;;;6.12;100.00;101059.13;10427062;28;20037;-90
2022/11/28 18:35:19;;;;;;;34.00;21.95;;;;;;;6.08;100.00;101059.69;10422702;28;20056;-91
2022/11/28 18:40:19;;;;;;;38.53;22.75;;;;;;;6.05;100.00;101070.75;10417996;28;20057;-88
2022/11/28 18:45:20;;;;;;;50.78;26.35;;;;;;;6.04;100.00;101062.88;10402763;28;20041;-88
2022/11/28 18:50:21;;;;;;;41.35;25.95;;;;;;;6.06;100.00;101067.38;10417647;28;20141;-90
2022/11/28 18:55:22;;;;;;;51.72;29.95;;;;;;;6.09;100.00;101072.78;10401293;28;20045;-94
2022/11/28 19:00:22;;;;;;;56.37;31.90;;;;;;;6.10;100.00;101066.78;10420211;28;20393;-90
2022/11/28 19:05:23;;;;;;;39.88;25.75;;;;;;;6.06;100.00;101072.56;10415423;28;20056;-83
2022/11/28 19:10:24;;;;;;;56.85;27.42;;;;;;;5.99;100.00;101080.69;10418241;28;20049;-90
2022/11/28 19:15:24;;;;;;;49.40;29.05;;;;;;;5.87;100.00;101076.44;10416174;28;20152;-85
2022/11/28 19:20:25;;;;;;;51.67;30.25;;;;;;;5.74;100.00;101078.97;10444150;28;20033;-86
2022/11/28 19:25:26;;;;;;;47.80;29.23;;;;;;;5.62;100.00;101075.53;10442321;28;20172;-86
2022/11/28 19:30:27;;;;;;;48.43;26.37;;;;;;;5.52;100.00;101081.78;10443238;28;20797;-86
2022/11/28 19:35:27;;;;;;;50.15;29.08;;;;;;;5.41;100.00;101092.28;10419475;28;20056;-84
2022/11/28 19:40:28;;;;;;;42.25;23.35;;;;;;;5.33;100.00;101096.03;10415403;28;20408;-85
2022/11/28 19:45:28;;;;;;;60.35;29.00;;;;;;;5.29;100.00;101100.06;10432963;28;20123;-83
2022/11/28 19:50:29;;;;;;;48.38;26.98;;;;;;;5.38;100.00;101102.44;10457920;28;20191;-80
2022/11/28 19:55:29;;;;;;;44.50;23.75;;;;;;;5.35;100.00;101104.81;10447212;28;20131;-85
2022/11/28 20:00:30;;;;;;;47.00;27.27;;;;;;;5.16;100.00;101105.16;10438267;28;20076;-84
2022/11/28 20:05:31;;;;;;;44.63;25.20;;;;;;;5.16;100.00;101109.47;10439729;28;20072;-85
2022/11/28 20:10:35;;;;;;;50.10;26.63;;;;;;;5.08;100.00;101115.00;10441462;28;20378;-84
2022/11/28 20:15:36;;;;;;;50.78;28.75;;;;;;;5.00;100.00;101119.59;10438209;28;20060;-85
2022/11/28 20:20:36;;;;;;;34.03;22.60;;;;;;;5.03;100.00;101129.31;10423297;28;20036;-84
2022/11/28 20:25:37;;;;;;;35.30;24.05;;;;;;;4.94;100.00;101124.31;10440346;28;20025;-84
2022/11/28 20:30:38;;;;;;;80.20;33.38;;;;;;;4.90;100.00;101132.66;10438487;28;20117;-85
2022/11/28 20:35:38;;;;;;;39.55;26.42;;;;;;;4.77;100.00;101141.22;10438275;28;20467;-84
2022/11/28 20:40:39;;;;;;;58.03;30.80;;;;;;;4.73;100.00;101139.19;10457066;28;20056;-84
2022/11/28 20:45:39;;;;;;;46.88;28.88;;;;;;;4.79;100.00;101138.75;10447825;28;20492;-86
2022/11/28 20:50:42;;;;;;;45.83;26.42;;;;;;;4.90;100.00;101148.22;10457308;28;20464;-86
2022/11/28 20:55:42;;;;;;;51.22;28.88;;;;;;;5.04;100.00;101156.13;10443624;28;20057;-84
2022/11/28 21:00:44;;;;;;;51.28;31.65;;;;;;;5.10;100.00;101161.78;10468032;28;20041;-84
2022/11/28 21:05:45;;;;;;;45.65;31.30;;;;;;;5.21;100.00;101160.88;10443807;28;20041;-83
2022/11/28 21:10:46;;;;;;;53.17;31.80;;;;;;;5.06;100.00;101155.47;10430531;28;20104;-87
2022/11/28 21:15:46;;;;;;;59.05;34.28;;;;;;;4.88;100.00;101155.00;10441607;28;20104;-87
2022/11/28 21:20:47;;;;;;;51.00;30.67;;;;;;;4.79;100.00;101149.13;10446440;28;20072;-88
2022/11/28 21:25:47;;;;;;;62.28;35.80;;;;;;;4.76;100.00;101160.19;10421917;28;20155;-87
2022/11/28 21:30:48;;;;;;;46.67;30.27;;;;;;;4.61;100.00;101154.72;10446232;28;20059;-87
2022/11/28 21:35:48;;;;;;;71.07;36.00;;;;;;;4.58;100.00;101174.31;10444899;28;20469;-87
2022/11/28 21:40:53;;;;;;;68.22;35.10;;;;;;;4.51;100.00;101173.84;10445411;28;20041;-87
2022/11/28 21:45:53;;;;;;;57.95;32.17;;;;;;;4.44;100.00;101174.16;10461058;28;20037;-88
2022/11/28 21:50:54;;;;;;;154.35;46.03;;;;;;;4.44;100.00;101174.16;10456898;28;20060;-88
2022/11/28 21:55:54;;;;;;;55.60;34.60;;;;;;;4.34;100.00;101179.44;10473606;28;20041;-87
2022/11/28 22:01:06;;;;;;;60.67;37.22;;;;;;;4.22;100.00;101177.69;10424630;28;20040;-88
2022/11/28 22:06:17;;;;;;;41.33;27.20;;;;;;;4.20;100.00;101168.88;10454871;28;20033;-88
2022/11/28 22:11:18;;;;;;;42.33;28.88;;;;;;;4.23;100.00;101171.72;10450141;28;20040;-88
2022/11/28 22:16:24;;;;;;;86.20;31.47;;;;;;;4.18;100.00;101180.81;10481295;28;20029;-89
2022/11/28 22:21:24;;;;;;;64.97;38.17;;;;;;;4.20;100.00;101176.66;10427266;28;20279;-88
2022/11/28 22:26:25;;;;;;;68.53;36.15;;;;;;;4.23;100.00;101175.97;10424395;28;20048;-88
2022/11/28 22:31:25;;;;;;;67.40;32.08;;;;;;;4.19;100.00;101187.81;10465764;28;20126;-89
2022/11/28 22:36:26;;;;;;;41.70;23.55;;;;;;;4.16;100.00;101186.66;10466833;28;20400;-88
2022/11/28 22:41:26;;;;;;;52.90;30.67;;;;;;;4.32;100.00;101192.25;10445766;28;20049;-88
2022/11/28 22:46:27;;;;;;;67.60;40.40;;;;;;;4.48;100.00;101204.72;10418867;28;20064;-88
2022/11/28 22:51:28;;;;;;;72.53;39.25;;;;;;;4.54;100.00;101209.47;10429404;28;20044;-88
2022/11/28 22:56:30;;;;;;;69.13;39.08;;;;;;;4.59;100.00;101205.53;10420932;28;20044;-88
2022/11/28 23:01:31;;;;;;;62.88;32.92;;;;;;;4.67;100.00;101211.34;10415015;28;20056;-89
2022/11/28 23:06:33;;;;;;;62.17;34.55;;;;;;;4.73;100.00;101209.22;10413847;28;20119;-88